Terminal Aerodrome Forecast
Issued by NWS Duluth, MN

Home | Current Version | Previous Version | Text Only | Print | Product List | Glossary On
Versions: 1 2 3 4 5 6 7 8 9 10 11 12 13 14 15 16 17 18 19 20 21 22 23 24 25 26 27 28 29 30 31 32 33 34 35 36 37 38 39 40 41 42 43
000
FTUS43 KDLH 310100 AAA
TAFDLH
TAF AMD
KDLH 310144Z 3102/3124 08007KT P6SM BKN005 OVC007
      TEMPO 3102/3103 BKN008
     FM310300 11005KT P6SM SCT040
     FM310600 10003KT 6SM BR FEW002
     FM310900 11006KT 2SM BR SCT002
     FM311300 11006KT 4SM BR FEW002 OVC015
     FM311800 11012KT P6SM VCSH BKN025=

USA.gov is the U.S. government's official web portal to all federal, state and local government web resources and services.